• Join FlightAware (Why Join?)
  • Login
  • US Flag 
04:13PM EDT


 

Airport Tracker/Info


-or-


 

Live Flight TrackerFlight Track Log ✈ UPS1121 ✈ 15-May-2013 ✈ KALB - KBDL

Flight Track Log - Related Links

Times and Time Zones

All times are in EDT time to prevent confusion due to time zone crossing. See the UPS1121 flight status page for this flight to view local times or setup timezone preferences in your user account.

Time Position Orientation Groundspeed Altitude Reporting Facility
EDT Latitude Longitude Course Direction KTS MPH feet Rate Location/Type
08:34PM 42.7339 -73.8081 170° South 151 174 1,800  Level Boston Center
08:34PM 42.7092 -73.8019 170° South 159 183 2,500 2,460 Climbing Boston Center
08:36PM 42.6311 -73.6789 131° Southeast 266 306 7,300 2,880 Climbing Boston Center
08:37PM 42.5781 -73.5933 130° Southeast 318 366 10,400 1,800 Climbing Boston Center
08:38PM 42.5083 -73.4736 128° Southeast 347 399 11,000 300 Climbing Boston Center
08:39PM 42.4589 -73.4025 133° Southeast 377 434 11,000  Level Boston Center
08:39PM 42.4444 -73.3797 131° Southeast 373 429 11,000 60 Level Boston Center
08:39PM 42.3908 -73.3117 137° Southeast 374 430 11,100 60 Climbing Boston Center
08:40PM 42.3642 -73.2689 130° Southeast 373 429 11,100  Level Boston Center
08:41PM 42.3103 -73.1953 135° Southeast 369 425 11,100  Level Boston Center
08:41PM 42.2981 -73.1728 126° Southeast 367 422 11,100 -120 Level Boston Center
08:42PM 42.2442 -73.1047 137° Southeast 349 402 11,000 -120 Descending Boston Center
08:42PM 42.2381 -73.0906 120° Southeast 349 402 11,000 -1,200 Level Boston Center
08:43PM 42.1886 -73.0061 128° Southeast 340 391 9,800 -1,800 Descending Boston Center
08:44PM 42.1869 -72.8856 91° East 321 369 7,900 -1,860 Descending Boston Center
08:45PM 42.1875 -72.7622 90° East 318 366 6,100 -1,620 Descending Boston Center
08:45PM 42.1897 -72.6728 88° East 315 362 5,000 -660 Descending Boston Center
08:46PM 42.1878 -72.5494 91° East 311 358 5,000 -240 Level Boston Center
08:47PM 42.1567 -72.4792 121° Southeast 261 300 4,600 -960 Descending Boston Center
08:48PM 42.1044 -72.4400 151° Southeast 199 229 3,100 -1,080 Descending Boston Center
08:49PM 42.0814 -72.4850 235° Southwest 161 185 2,500 -360 Descending Boston Center
08:50PM 42.0586 -72.5322 237° Southwest 156 180 2,500  Level Boston Center
08:51PM 42.0253 -72.5714 221° Southwest 149 171 2,500 -420 Level Boston Center
08:53PM 41.9958 -72.6106 225° Southwest 121 139 1,600 -780 Descending Boston Center